sensor_id;sensor_type;location;lat;lon;timestamp;P1;durP1;ratioP1;P2;durP2;ratioP2
1446;SDS011;717;51.522;7.266;2022-08-02T00:02:17;4.85;;;2.90;;
1446;SDS011;717;51.522;7.266;2022-08-02T00:04:44;3.97;;;2.63;;
1446;SDS011;717;51.522;7.266;2022-08-02T00:07:12;6.35;;;3.15;;
1446;SDS011;717;51.522;7.266;2022-08-02T00:09:39;4.65;;;3.00;;
1446;SDS011;717;51.522;7.266;2022-08-02T00:12:07;5.05;;;2.70;;
1446;SDS011;717;51.522;7.266;2022-08-02T00:14:36;4.25;;;2.70;;
1446;SDS011;717;51.522;7.266;2022-08-02T00:17:03;3.95;;;2.80;;
1446;SDS011;717;51.522;7.266;2022-08-02T00:19:31;3.10;;;2.60;;
1446;SDS011;717;51.522;7.266;2022-08-02T00:21:57;3.65;;;2.65;;
1446;SDS011;717;51.522;7.266;2022-08-02T00:24:24;3.92;;;2.80;;
1446;SDS011;717;51.522;7.266;2022-08-02T00:26:51;2.53;;;2.33;;
1446;SDS011;717;51.522;7.266;2022-08-02T00:29:18;2.60;;;2.40;;
1446;SDS011;717;51.522;7.266;2022-08-02T00:31:46;5.18;;;2.60;;
1446;SDS011;717;51.522;7.266;2022-08-02T00:34:13;4.75;;;2.72;;
1446;SDS011;717;51.522;7.266;2022-08-02T00:36:40;3.70;;;2.55;;
1446;SDS011;717;51.522;7.266;2022-08-02T00:39:07;7.45;;;3.15;;
1446;SDS011;717;51.522;7.266;2022-08-02T00:41:42;4.65;;;2.80;;
1446;SDS011;717;51.522;7.266;2022-08-02T00:44:12;4.50;;;2.70;;
1446;SDS011;717;51.522;7.266;2022-08-02T00:46:39;3.85;;;2.80;;
1446;SDS011;717;51.522;7.266;2022-08-02T00:49:07;4.13;;;2.42;;
1446;SDS011;717;51.522;7.266;2022-08-02T00:51:34;3.42;;;2.97;;
1446;SDS011;717;51.522;7.266;2022-08-02T00:54:01;4.43;;;2.80;;
1446;SDS011;717;51.522;7.266;2022-08-02T00:56:28;3.58;;;2.75;;
1446;SDS011;717;51.522;7.266;2022-08-02T00:58:55;3.47;;;2.65;;
1446;SDS011;717;51.522;7.266;2022-08-02T01:01:22;6.65;;;2.78;;
1446;SDS011;717;51.522;7.266;2022-08-02T01:04:03;5.30;;;2.60;;
1446;SDS011;717;51.522;7.266;2022-08-02T01:06:31;4.88;;;2.88;;
1446;SDS011;717;51.522;7.266;2022-08-02T01:08:59;5.07;;;3.08;;
1446;SDS011;717;51.522;7.266;2022-08-02T01:11:27;3.40;;;2.80;;
1446;SDS011;717;51.522;7.266;2022-08-02T01:13:55;4.85;;;2.85;;
1446;SDS011;717;51.522;7.266;2022-08-02T01:16:25;4.25;;;2.72;;
1446;SDS011;717;51.522;7.266;2022-08-02T01:18:58;3.80;;;3.05;;
1446;SDS011;717;51.522;7.266;2022-08-02T01:21:40;3.67;;;2.70;;
1446;SDS011;717;51.522;7.266;2022-08-02T01:24:34;5.57;;;3.13;;
1446;SDS011;717;51.522;7.266;2022-08-02T01:27:17;4.95;;;3.10;;
1446;SDS011;717;51.522;7.266;2022-08-02T01:29:55;4.80;;;2.90;;
1446;SDS011;717;51.522;7.266;2022-08-02T01:32:26;4.22;;;3.30;;
1446;SDS011;717;51.522;7.266;2022-08-02T01:34:57;3.47;;;3.17;;
1446;SDS011;717;51.522;7.266;2022-08-02T01:37:28;8.18;;;3.40;;
1446;SDS011;717;51.522;7.266;2022-08-02T01:40:02;4.30;;;3.40;;
1446;SDS011;717;51.522;7.266;2022-08-02T01:42:33;3.38;;;2.83;;
1446;SDS011;717;51.522;7.266;2022-08-02T01:45:03;4.88;;;3.17;;
1446;SDS011;717;51.522;7.266;2022-08-02T01:47:33;3.05;;;2.80;;
1446;SDS011;717;51.522;7.266;2022-08-02T01:50:02;4.20;;;3.20;;
1446;SDS011;717;51.522;7.266;2022-08-02T01:52:31;4.80;;;3.00;;
1446;SDS011;717;51.522;7.266;2022-08-02T01:55:03;5.65;;;3.47;;
1446;SDS011;717;51.522;7.266;2022-08-02T01:57:33;4.40;;;3.03;;
1446;SDS011;717;51.522;7.266;2022-08-02T02:00:05;5.32;;;3.10;;
1446;SDS011;717;51.522;7.266;2022-08-02T02:02:35;4.35;;;3.25;;
1446;SDS011;717;51.522;7.266;2022-08-02T02:05:04;3.33;;;2.90;;
1446;SDS011;717;51.522;7.266;2022-08-02T02:07:32;3.40;;;3.00;;
1446;SDS011;717;51.522;7.266;2022-08-02T02:10:01;5.13;;;3.55;;
1446;SDS011;717;51.522;7.266;2022-08-02T02:12:29;3.88;;;3.30;;
1446;SDS011;717;51.522;7.266;2022-08-02T02:14:58;4.10;;;3.00;;
1446;SDS011;717;51.522;7.266;2022-08-02T02:17:28;4.45;;;3.30;;
1446;SDS011;717;51.522;7.266;2022-08-02T02:19:57;4.10;;;3.25;;
1446;SDS011;717;51.522;7.266;2022-08-02T02:22:27;5.13;;;3.30;;
1446;SDS011;717;51.522;7.266;2022-08-02T02:24:54;4.60;;;3.20;;
1446;SDS011;717;51.522;7.266;2022-08-02T02:27:21;5.22;;;3.03;;
1446;SDS011;717;51.522;7.266;2022-08-02T02:29:49;3.42;;;2.97;;
1446;SDS011;717;51.522;7.266;2022-08-02T02:32:18;6.78;;;3.67;;
1446;SDS011;717;51.522;7.266;2022-08-02T02:34:49;3.90;;;3.20;;
1446;SDS011;717;51.522;7.266;2022-08-02T02:37:18;3.55;;;3.25;;
1446;SDS011;717;51.522;7.266;2022-08-02T02:39:47;3.90;;;3.10;;
1446;SDS011;717;51.522;7.266;2022-08-02T02:42:19;4.03;;;3.40;;
1446;SDS011;717;51.522;7.266;2022-08-02T02:44:49;4.70;;;3.50;;
1446;SDS011;717;51.522;7.266;2022-08-02T02:47:18;3.38;;;3.08;;
1446;SDS011;717;51.522;7.266;2022-08-02T02:49:46;3.65;;;3.35;;
1446;SDS011;717;51.522;7.266;2022-08-02T02:52:17;3.60;;;3.30;;
1446;SDS011;717;51.522;7.266;2022-08-02T02:54:45;6.85;;;3.15;;
1446;SDS011;717;51.522;7.266;2022-08-02T02:57:13;3.92;;;3.53;;
1446;SDS011;717;51.522;7.266;2022-08-02T02:59:42;4.85;;;3.40;;
1446;SDS011;717;51.522;7.266;2022-08-02T03:02:09;9.60;;;3.50;;
1446;SDS011;717;51.522;7.266;2022-08-02T03:04:36;5.25;;;3.28;;
1446;SDS011;717;51.522;7.266;2022-08-02T03:07:07;4.03;;;3.45;;
1446;SDS011;717;51.522;7.266;2022-08-02T03:09:35;4.40;;;3.58;;
1446;SDS011;717;51.522;7.266;2022-08-02T03:12:02;3.60;;;3.30;;
1446;SDS011;717;51.522;7.266;2022-08-02T03:14:30;4.35;;;3.95;;
1446;SDS011;717;51.522;7.266;2022-08-02T03:16:57;5.15;;;3.97;;
1446;SDS011;717;51.522;7.266;2022-08-02T03:19:24;5.32;;;3.85;;
1446;SDS011;717;51.522;7.266;2022-08-02T03:21:51;6.70;;;3.67;;
1446;SDS011;717;51.522;7.266;2022-08-02T03:24:17;4.40;;;3.70;;
1446;SDS011;717;51.522;7.266;2022-08-02T03:26:46;6.03;;;3.67;;
1446;SDS011;717;51.522;7.266;2022-08-02T03:29:13;4.43;;;4.03;;
1446;SDS011;717;51.522;7.266;2022-08-02T03:31:40;4.00;;;3.60;;
1446;SDS011;717;51.522;7.266;2022-08-02T03:34:09;4.55;;;4.03;;
1446;SDS011;717;51.522;7.266;2022-08-02T03:36:36;5.60;;;3.65;;
1446;SDS011;717;51.522;7.266;2022-08-02T03:39:05;4.55;;;3.60;;
1446;SDS011;717;51.522;7.266;2022-08-02T03:41:33;4.22;;;3.83;;
1446;SDS011;717;51.522;7.266;2022-08-02T03:44:03;4.35;;;3.95;;
1446;SDS011;717;51.522;7.266;2022-08-02T03:46:32;4.03;;;3.70;;
1446;SDS011;717;51.522;7.266;2022-08-02T03:49:03;5.38;;;4.50;;
1446;SDS011;717;51.522;7.266;2022-08-02T03:51:31;5.30;;;3.97;;
1446;SDS011;717;51.522;7.266;2022-08-02T03:53:58;6.80;;;4.05;;
1446;SDS011;717;51.522;7.266;2022-08-02T03:56:26;4.88;;;4.38;;
1446;SDS011;717;51.522;7.266;2022-08-02T03:59:05;4.85;;;4.43;;
1446;SDS011;717;51.522;7.266;2022-08-02T04:01:33;4.40;;;3.92;;
1446;SDS011;717;51.522;7.266;2022-08-02T04:03:59;6.93;;;4.47;;
1446;SDS011;717;51.522;7.266;2022-08-02T04:06:26;7.07;;;4.93;;
1446;SDS011;717;51.522;7.266;2022-08-02T04:08:53;5.68;;;4.43;;
1446;SDS011;717;51.522;7.266;2022-08-02T04:11:20;5.05;;;4.63;;
1446;SDS011;717;51.522;7.266;2022-08-02T04:13:56;5.65;;;4.65;;
1446;SDS011;717;51.522;7.266;2022-08-02T04:16:28;6.03;;;4.57;;
1446;SDS011;717;51.522;7.266;2022-08-02T04:19:03;6.40;;;4.32;;
1446;SDS011;717;51.522;7.266;2022-08-02T04:21:34;5.15;;;4.68;;
1446;SDS011;717;51.522;7.266;2022-08-02T04:24:02;6.10;;;5.07;;
1446;SDS011;717;51.522;7.266;2022-08-02T04:26:31;5.15;;;4.70;;
1446;SDS011;717;51.522;7.266;2022-08-02T04:28:59;6.10;;;4.80;;
1446;SDS011;717;51.522;7.266;2022-08-02T04:31:28;6.55;;;4.43;;
1446;SDS011;717;51.522;7.266;2022-08-02T04:33:55;5.00;;;4.50;;
1446;SDS011;717;51.522;7.266;2022-08-02T04:36:23;5.22;;;4.38;;
1446;SDS011;717;51.522;7.266;2022-08-02T04:38:50;5.00;;;4.47;;
1446;SDS011;717;51.522;7.266;2022-08-02T04:41:17;7.07;;;5.30;;
1446;SDS011;717;51.522;7.266;2022-08-02T04:43:44;6.10;;;4.93;;
1446;SDS011;717;51.522;7.266;2022-08-02T04:46:11;6.40;;;5.18;;
1446;SDS011;717;51.522;7.266;2022-08-02T04:48:39;5.30;;;4.75;;
1446;SDS011;717;51.522;7.266;2022-08-02T04:51:06;5.88;;;5.15;;
1446;SDS011;717;51.522;7.266;2022-08-02T04:53:33;5.25;;;4.75;;
1446;SDS011;717;51.522;7.266;2022-08-02T04:55:59;6.05;;;5.28;;
1446;SDS011;717;51.522;7.266;2022-08-02T04:58:26;5.50;;;5.00;;
1446;SDS011;717;51.522;7.266;2022-08-02T05:00:53;5.97;;;5.47;;
1446;SDS011;717;51.522;7.266;2022-08-02T05:03:20;8.65;;;5.05;;
1446;SDS011;717;51.522;7.266;2022-08-02T05:05:48;5.60;;;5.10;;
1446;SDS011;717;51.522;7.266;2022-08-02T05:08:15;5.97;;;5.07;;
1446;SDS011;717;51.522;7.266;2022-08-02T05:10:42;5.43;;;4.93;;
1446;SDS011;717;51.522;7.266;2022-08-02T05:13:08;6.00;;;5.35;;
1446;SDS011;717;51.522;7.266;2022-08-02T05:15:35;5.55;;;5.05;;
1446;SDS011;717;51.522;7.266;2022-08-02T05:18:03;5.88;;;5.28;;
1446;SDS011;717;51.522;7.266;2022-08-02T05:20:30;6.18;;;5.28;;
1446;SDS011;717;51.522;7.266;2022-08-02T05:22:58;7.22;;;5.40;;
1446;SDS011;717;51.522;7.266;2022-08-02T05:25:24;5.93;;;5.38;;
1446;SDS011;717;51.522;7.266;2022-08-02T05:27:52;8.15;;;5.80;;
1446;SDS011;717;51.522;7.266;2022-08-02T05:30:18;6.63;;;5.30;;
1446;SDS011;717;51.522;7.266;2022-08-02T05:32:46;6.05;;;5.45;;
1446;SDS011;717;51.522;7.266;2022-08-02T05:35:16;6.20;;;5.03;;
1446;SDS011;717;51.522;7.266;2022-08-02T05:37:43;5.70;;;4.93;;
1446;SDS011;717;51.522;7.266;2022-08-02T05:40:12;6.63;;;5.90;;
1446;SDS011;717;51.522;7.266;2022-08-02T05:42:40;5.97;;;5.40;;
1446;SDS011;717;51.522;7.266;2022-08-02T05:45:07;6.80;;;5.53;;
1446;SDS011;717;51.522;7.266;2022-08-02T05:47:35;10.57;;;5.75;;
1446;SDS011;717;51.522;7.266;2022-08-02T05:50:02;6.43;;;5.82;;
1446;SDS011;717;51.522;7.266;2022-08-02T05:52:33;7.80;;;5.95;;
1446;SDS011;717;51.522;7.266;2022-08-02T05:55:10;6.55;;;5.90;;
1446;SDS011;717;51.522;7.266;2022-08-02T05:57:46;6.90;;;5.60;;
1446;SDS011;717;51.522;7.266;2022-08-02T06:00:16;7.63;;;6.82;;
1446;SDS011;717;51.522;7.266;2022-08-02T06:05:40;6.55;;;5.93;;
1446;SDS011;717;51.522;7.266;2022-08-02T06:08:14;7.65;;;6.85;;
1446;SDS011;717;51.522;7.266;2022-08-02T06:10:43;8.52;;;6.10;;
1446;SDS011;717;51.522;7.266;2022-08-02T06:13:12;6.93;;;5.93;;
1446;SDS011;717;51.522;7.266;2022-08-02T06:15:41;7.82;;;5.65;;
1446;SDS011;717;51.522;7.266;2022-08-02T06:18:08;8.18;;;6.32;;
1446;SDS011;717;51.522;7.266;2022-08-02T06:20:35;6.97;;;5.70;;
1446;SDS011;717;51.522;7.266;2022-08-02T06:23:02;6.25;;;5.65;;
1446;SDS011;717;51.522;7.266;2022-08-02T06:25:30;9.02;;;6.22;;
1446;SDS011;717;51.522;7.266;2022-08-02T06:27:59;6.75;;;6.03;;
1446;SDS011;717;51.522;7.266;2022-08-02T06:30:28;7.75;;;6.35;;
1446;SDS011;717;51.522;7.266;2022-08-02T06:32:55;7.90;;;5.80;;
1446;SDS011;717;51.522;7.266;2022-08-02T06:35:22;6.60;;;5.85;;
1446;SDS011;717;51.522;7.266;2022-08-02T06:37:59;7.80;;;5.90;;
1446;SDS011;717;51.522;7.266;2022-08-02T06:40:28;8.15;;;6.78;;
1446;SDS011;717;51.522;7.266;2022-08-02T06:43:00;8.48;;;6.22;;
1446;SDS011;717;51.522;7.266;2022-08-02T06:45:35;8.82;;;6.38;;
1446;SDS011;717;51.522;7.266;2022-08-02T06:48:02;9.50;;;6.32;;
1446;SDS011;717;51.522;7.266;2022-08-02T06:50:29;6.68;;;5.95;;
1446;SDS011;717;51.522;7.266;2022-08-02T06:52:56;7.00;;;5.97;;
1446;SDS011;717;51.522;7.266;2022-08-02T06:55:23;9.55;;;5.90;;
1446;SDS011;717;51.522;7.266;2022-08-02T06:57:50;10.93;;;6.68;;
1446;SDS011;717;51.522;7.266;2022-08-02T07:00:18;9.10;;;5.93;;
1446;SDS011;717;51.522;7.266;2022-08-02T07:02:45;6.10;;;5.50;;
1446;SDS011;717;51.522;7.266;2022-08-02T07:05:12;10.40;;;5.63;;
1446;SDS011;717;51.522;7.266;2022-08-02T07:07:38;5.72;;;4.90;;
1446;SDS011;717;51.522;7.266;2022-08-02T07:10:06;7.47;;;5.22;;
1446;SDS011;717;51.522;7.266;2022-08-02T07:12:33;6.90;;;4.75;;
1446;SDS011;717;51.522;7.266;2022-08-02T07:15:02;6.72;;;4.90;;
1446;SDS011;717;51.522;7.266;2022-08-02T07:17:32;5.80;;;4.57;;
1446;SDS011;717;51.522;7.266;2022-08-02T07:20:00;5.38;;;4.50;;
1446;SDS011;717;51.522;7.266;2022-08-02T07:22:27;6.95;;;4.63;;
1446;SDS011;717;51.522;7.266;2022-08-02T07:24:55;6.72;;;4.30;;
1446;SDS011;717;51.522;7.266;2022-08-02T07:27:23;7.13;;;4.55;;
1446;SDS011;717;51.522;7.266;2022-08-02T07:29:51;4.47;;;3.80;;
1446;SDS011;717;51.522;7.266;2022-08-02T07:32:19;5.70;;;3.65;;
1446;SDS011;717;51.522;7.266;2022-08-02T07:34:49;6.72;;;3.45;;
1446;SDS011;717;51.522;7.266;2022-08-02T07:37:17;4.53;;;3.63;;
1446;SDS011;717;51.522;7.266;2022-08-02T07:39:44;5.20;;;3.08;;
1446;SDS011;717;51.522;7.266;2022-08-02T07:42:11;3.60;;;2.60;;
1446;SDS011;717;51.522;7.266;2022-08-02T07:44:37;4.28;;;2.60;;
1446;SDS011;717;51.522;7.266;2022-08-02T07:47:04;3.72;;;2.40;;
1446;SDS011;717;51.522;7.266;2022-08-02T07:49:31;3.85;;;2.05;;
1446;SDS011;717;51.522;7.266;2022-08-02T07:52:00;5.80;;;2.10;;
1446;SDS011;717;51.522;7.266;2022-08-02T07:54:26;4.32;;;1.92;;
1446;SDS011;717;51.522;7.266;2022-08-02T07:56:53;3.78;;;2.00;;
1446;SDS011;717;51.522;7.266;2022-08-02T07:59:20;4.53;;;2.33;;
1446;SDS011;717;51.522;7.266;2022-08-02T08:01:47;4.65;;;1.80;;
1446;SDS011;717;51.522;7.266;2022-08-02T08:04:15;4.57;;;1.80;;
1446;SDS011;717;51.522;7.266;2022-08-02T08:06:42;5.13;;;2.20;;
1446;SDS011;717;51.522;7.266;2022-08-02T08:09:11;3.38;;;1.67;;
1446;SDS011;717;51.522;7.266;2022-08-02T08:11:38;3.53;;;1.60;;
1446;SDS011;717;51.522;7.266;2022-08-02T08:14:04;4.03;;;2.03;;
1446;SDS011;717;51.522;7.266;2022-08-02T08:16:31;2.65;;;1.42;;
1446;SDS011;717;51.522;7.266;2022-08-02T08:18:58;3.15;;;1.50;;
1446;SDS011;717;51.522;7.266;2022-08-02T08:21:26;2.55;;;1.50;;
1446;SDS011;717;51.522;7.266;2022-08-02T08:23:53;2.55;;;1.75;;
1446;SDS011;717;51.522;7.266;2022-08-02T08:26:22;2.47;;;1.52;;
1446;SDS011;717;51.522;7.266;2022-08-02T08:28:50;2.28;;;1.40;;
1446;SDS011;717;51.522;7.266;2022-08-02T08:31:17;2.80;;;1.48;;
1446;SDS011;717;51.522;7.266;2022-08-02T08:33:44;2.92;;;1.77;;
1446;SDS011;717;51.522;7.266;2022-08-02T08:36:12;2.13;;;1.55;;
1446;SDS011;717;51.522;7.266;2022-08-02T08:38:40;3.55;;;1.63;;
1446;SDS011;717;51.522;7.266;2022-08-02T08:41:07;2.65;;;1.52;;
1446;SDS011;717;51.522;7.266;2022-08-02T08:43:36;1.92;;;1.30;;
1446;SDS011;717;51.522;7.266;2022-08-02T08:46:04;3.42;;;1.55;;
1446;SDS011;717;51.522;7.266;2022-08-02T08:48:31;2.20;;;1.55;;
1446;SDS011;717;51.522;7.266;2022-08-02T08:51:04;2.08;;;1.30;;
1446;SDS011;717;51.522;7.266;2022-08-02T08:53:36;3.72;;;1.50;;
1446;SDS011;717;51.522;7.266;2022-08-02T08:56:07;2.00;;;1.52;;
1446;SDS011;717;51.522;7.266;2022-08-02T08:58:38;2.13;;;1.60;;
1446;SDS011;717;51.522;7.266;2022-08-02T09:01:05;2.42;;;1.20;;
1446;SDS011;717;51.522;7.266;2022-08-02T09:03:32;1.35;;;1.08;;
1446;SDS011;717;51.522;7.266;2022-08-02T09:05:59;2.40;;;1.20;;
1446;SDS011;717;51.522;7.266;2022-08-02T09:08:26;1.42;;;1.25;;
1446;SDS011;717;51.522;7.266;2022-08-02T09:10:53;2.45;;;1.40;;
1446;SDS011;717;51.522;7.266;2022-08-02T09:13:21;4.63;;;1.30;;
1446;SDS011;717;51.522;7.266;2022-08-02T09:15:55;3.47;;;1.60;;
1446;SDS011;717;51.522;7.266;2022-08-02T09:18:29;2.40;;;1.65;;
1446;SDS011;717;51.522;7.266;2022-08-02T09:20:57;1.92;;;1.38;;
1446;SDS011;717;51.522;7.266;2022-08-02T09:23:25;1.55;;;1.45;;
1446;SDS011;717;51.522;7.266;2022-08-02T09:25:59;1.20;;;1.10;;
1446;SDS011;717;51.522;7.266;2022-08-02T09:28:28;1.77;;;1.50;;
1446;SDS011;717;51.522;7.266;2022-08-02T09:30:58;2.97;;;1.40;;
1446;SDS011;717;51.522;7.266;2022-08-02T09:33:30;2.53;;;1.70;;
1446;SDS011;717;51.522;7.266;2022-08-02T09:35:58;2.20;;;1.80;;
1446;SDS011;717;51.522;7.266;2022-08-02T09:38:26;2.28;;;1.52;;
1446;SDS011;717;51.522;7.266;2022-08-02T09:40:54;2.33;;;1.50;;
1446;SDS011;717;51.522;7.266;2022-08-02T09:43:21;2.33;;;1.88;;
1446;SDS011;717;51.522;7.266;2022-08-02T09:46:09;2.30;;;2.08;;
1446;SDS011;717;51.522;7.266;2022-08-02T09:48:45;2.00;;;1.80;;
1446;SDS011;717;51.522;7.266;2022-08-02T09:51:15;3.58;;;1.80;;
1446;SDS011;717;51.522;7.266;2022-08-02T09:53:42;2.88;;;1.85;;
1446;SDS011;717;51.522;7.266;2022-08-02T09:56:09;2.25;;;1.70;;
1446;SDS011;717;51.522;7.266;2022-08-02T09:58:37;3.72;;;1.90;;
1446;SDS011;717;51.522;7.266;2022-08-02T10:01:04;2.60;;;1.58;;
1446;SDS011;717;51.522;7.266;2022-08-02T10:03:34;5.40;;;2.25;;
1446;SDS011;717;51.522;7.266;2022-08-02T10:06:01;4.53;;;1.75;;
1446;SDS011;717;51.522;7.266;2022-08-02T10:08:29;2.35;;;1.63;;
1446;SDS011;717;51.522;7.266;2022-08-02T10:10:57;1.95;;;1.85;;
1446;SDS011;717;51.522;7.266;2022-08-02T10:13:28;2.15;;;1.80;;
1446;SDS011;717;51.522;7.266;2022-08-02T10:15:56;1.95;;;1.85;;
1446;SDS011;717;51.522;7.266;2022-08-02T10:18:23;2.17;;;1.98;;
1446;SDS011;717;51.522;7.266;2022-08-02T10:20:52;2.45;;;2.00;;
1446;SDS011;717;51.522;7.266;2022-08-02T10:23:21;2.45;;;1.55;;
1446;SDS011;717;51.522;7.266;2022-08-02T10:25:52;2.20;;;1.77;;
1446;SDS011;717;51.522;7.266;2022-08-02T10:28:22;3.90;;;1.80;;
1446;SDS011;717;51.522;7.266;2022-08-02T10:30:54;2.78;;;1.90;;
1446;SDS011;717;51.522;7.266;2022-08-02T10:33:23;2.28;;;1.50;;
1446;SDS011;717;51.522;7.266;2022-08-02T10:35:53;3.72;;;2.00;;
1446;SDS011;717;51.522;7.266;2022-08-02T10:38:22;2.38;;;1.85;;
1446;SDS011;717;51.522;7.266;2022-08-02T10:40:50;2.47;;;1.83;;
1446;SDS011;717;51.522;7.266;2022-08-02T10:46:21;3.17;;;1.65;;
1446;SDS011;717;51.522;7.266;2022-08-02T10:49:03;3.10;;;2.00;;
1446;SDS011;717;51.522;7.266;2022-08-02T10:54:40;3.35;;;1.73;;
1446;SDS011;717;51.522;7.266;2022-08-02T10:57:18;3.17;;;2.35;;
1446;SDS011;717;51.522;7.266;2022-08-02T10:59:47;2.00;;;1.90;;
1446;SDS011;717;51.522;7.266;2022-08-02T11:05:03;2.45;;;2.25;;
1446;SDS011;717;51.522;7.266;2022-08-02T11:07:34;2.00;;;1.90;;
1446;SDS011;717;51.522;7.266;2022-08-02T11:12:58;2.75;;;2.08;;
1446;SDS011;717;51.522;7.266;2022-08-02T11:15:27;3.50;;;2.08;;
1446;SDS011;717;51.522;7.266;2022-08-02T11:17:55;3.53;;;2.40;;
1446;SDS011;717;51.522;7.266;2022-08-02T11:20:24;2.65;;;2.30;;
1446;SDS011;717;51.522;7.266;2022-08-02T11:22:52;3.28;;;2.83;;
1446;SDS011;717;51.522;7.266;2022-08-02T11:25:34;3.92;;;2.63;;
1446;SDS011;717;51.522;7.266;2022-08-02T11:28:08;3.63;;;2.60;;
1446;SDS011;717;51.522;7.266;2022-08-02T11:30:37;4.22;;;2.83;;
1446;SDS011;717;51.522;7.266;2022-08-02T11:33:04;6.72;;;3.35;;
1446;SDS011;717;51.522;7.266;2022-08-02T11:35:32;3.25;;;2.95;;
1446;SDS011;717;51.522;7.266;2022-08-02T11:38:13;7.15;;;3.40;;
1446;SDS011;717;51.522;7.266;2022-08-02T11:40:43;4.47;;;2.50;;
1446;SDS011;717;51.522;7.266;2022-08-02T11:43:14;4.65;;;2.08;;
1446;SDS011;717;51.522;7.266;2022-08-02T11:45:45;4.22;;;2.00;;
1446;SDS011;717;51.522;7.266;2022-08-02T11:48:12;2.90;;;2.10;;
1446;SDS011;717;51.522;7.266;2022-08-02T11:50:39;3.20;;;2.22;;
1446;SDS011;717;51.522;7.266;2022-08-02T11:53:12;3.78;;;2.28;;
1446;SDS011;717;51.522;7.266;2022-08-02T11:55:40;4.53;;;2.20;;
1446;SDS011;717;51.522;7.266;2022-08-02T11:58:09;4.40;;;2.35;;
1446;SDS011;717;51.522;7.266;2022-08-02T12:00:36;2.00;;;1.88;;
1446;SDS011;717;51.522;7.266;2022-08-02T12:03:05;3.00;;;2.15;;
1446;SDS011;717;51.522;7.266;2022-08-02T12:05:33;4.32;;;1.92;;
1446;SDS011;717;51.522;7.266;2022-08-02T12:08:01;2.58;;;2.03;;
1446;SDS011;717;51.522;7.266;2022-08-02T12:10:32;2.72;;;1.80;;
1446;SDS011;717;51.522;7.266;2022-08-02T12:13:00;2.38;;;1.90;;
1446;SDS011;717;51.522;7.266;2022-08-02T12:15:31;2.33;;;1.85;;
1446;SDS011;717;51.522;7.266;2022-08-02T12:17:59;3.60;;;2.00;;
1446;SDS011;717;51.522;7.266;2022-08-02T12:20:44;2.80;;;2.00;;
1446;SDS011;717;51.522;7.266;2022-08-02T12:23:11;1.52;;;1.42;;
1446;SDS011;717;51.522;7.266;2022-08-02T12:25:38;2.28;;;1.58;;
1446;SDS011;717;51.522;7.266;2022-08-02T12:28:13;3.63;;;1.70;;
1446;SDS011;717;51.522;7.266;2022-08-02T12:30:49;2.97;;;1.60;;
1446;SDS011;717;51.522;7.266;2022-08-02T12:33:20;2.20;;;1.30;;
1446;SDS011;717;51.522;7.266;2022-08-02T12:35:48;2.45;;;1.38;;
1446;SDS011;717;51.522;7.266;2022-08-02T12:38:16;2.30;;;1.52;;
1446;SDS011;717;51.522;7.266;2022-08-02T12:40:43;2.20;;;1.50;;
1446;SDS011;717;51.522;7.266;2022-08-02T12:43:17;1.90;;;1.55;;
1446;SDS011;717;51.522;7.266;2022-08-02T12:45:47;2.22;;;1.40;;
1446;SDS011;717;51.522;7.266;2022-08-02T12:48:28;4.70;;;1.50;;
1446;SDS011;717;51.522;7.266;2022-08-02T12:50:58;1.58;;;1.48;;
1446;SDS011;717;51.522;7.266;2022-08-02T12:53:29;1.60;;;1.50;;
1446;SDS011;717;51.522;7.266;2022-08-02T12:55:58;2.00;;;1.73;;
1446;SDS011;717;51.522;7.266;2022-08-02T12:58:28;1.75;;;1.40;;
1446;SDS011;717;51.522;7.266;2022-08-02T13:00:56;1.60;;;1.50;;
1446;SDS011;717;51.522;7.266;2022-08-02T13:03:24;1.50;;;1.40;;
1446;SDS011;717;51.522;7.266;2022-08-02T13:05:52;1.52;;;1.35;;
1446;SDS011;717;51.522;7.266;2022-08-02T13:08:18;2.67;;;1.40;;
1446;SDS011;717;51.522;7.266;2022-08-02T13:10:46;3.80;;;1.60;;
1446;SDS011;717;51.522;7.266;2022-08-02T13:13:12;1.60;;;1.50;;
1446;SDS011;717;51.522;7.266;2022-08-02T13:15:41;1.60;;;1.50;;
1446;SDS011;717;51.522;7.266;2022-08-02T13:18:08;1.60;;;1.50;;
1446;SDS011;717;51.522;7.266;2022-08-02T13:20:35;2.10;;;1.35;;
1446;SDS011;717;51.522;7.266;2022-08-02T13:23:02;1.67;;;1.33;;
1446;SDS011;717;51.522;7.266;2022-08-02T13:25:29;1.40;;;1.30;;
1446;SDS011;717;51.522;7.266;2022-08-02T13:27:56;2.25;;;1.38;;
1446;SDS011;717;51.522;7.266;2022-08-02T13:30:23;3.08;;;1.70;;
1446;SDS011;717;51.522;7.266;2022-08-02T13:32:51;1.55;;;1.20;;
1446;SDS011;717;51.522;7.266;2022-08-02T13:35:18;1.90;;;1.40;;
1446;SDS011;717;51.522;7.266;2022-08-02T13:37:45;2.20;;;1.35;;
1446;SDS011;717;51.522;7.266;2022-08-02T13:40:12;4.25;;;1.25;;
1446;SDS011;717;51.522;7.266;2022-08-02T13:42:39;3.00;;;1.10;;
1446;SDS011;717;51.522;7.266;2022-08-02T13:45:06;4.80;;;1.42;;
1446;SDS011;717;51.522;7.266;2022-08-02T13:47:35;2.85;;;1.45;;
1446;SDS011;717;51.522;7.266;2022-08-02T13:50:05;1.90;;;1.38;;
1446;SDS011;717;51.522;7.266;2022-08-02T13:52:33;3.00;;;1.75;;
1446;SDS011;717;51.522;7.266;2022-08-02T13:55:00;2.08;;;1.80;;
1446;SDS011;717;51.522;7.266;2022-08-02T13:57:27;2.33;;;1.38;;
1446;SDS011;717;51.522;7.266;2022-08-02T13:59:53;2.03;;;1.38;;
1446;SDS011;717;51.522;7.266;2022-08-02T14:02:21;2.28;;;1.77;;
1446;SDS011;717;51.522;7.266;2022-08-02T14:04:48;1.45;;;1.35;;
1446;SDS011;717;51.522;7.266;2022-08-02T14:07:16;1.67;;;1.58;;
1446;SDS011;717;51.522;7.266;2022-08-02T14:09:44;2.95;;;1.30;;
1446;SDS011;717;51.522;7.266;2022-08-02T14:12:11;1.40;;;1.25;;
1446;SDS011;717;51.522;7.266;2022-08-02T14:14:38;2.47;;;1.50;;
1446;SDS011;717;51.522;7.266;2022-08-02T14:17:05;1.40;;;1.30;;
1446;SDS011;717;51.522;7.266;2022-08-02T14:19:32;2.38;;;1.20;;
1446;SDS011;717;51.522;7.266;2022-08-02T14:21:59;3.00;;;1.40;;
1446;SDS011;717;51.522;7.266;2022-08-02T14:24:27;1.58;;;1.25;;
1446;SDS011;717;51.522;7.266;2022-08-02T14:26:55;1.80;;;1.33;;
1446;SDS011;717;51.522;7.266;2022-08-02T14:29:22;1.40;;;1.30;;
1446;SDS011;717;51.522;7.266;2022-08-02T14:31:49;2.20;;;1.42;;
1446;SDS011;717;51.522;7.266;2022-08-02T14:34:15;2.75;;;1.60;;
1446;SDS011;717;51.522;7.266;2022-08-02T14:36:42;2.20;;;1.30;;
1446;SDS011;717;51.522;7.266;2022-08-02T14:39:09;2.08;;;1.30;;
1446;SDS011;717;51.522;7.266;2022-08-02T14:41:37;2.85;;;1.50;;
1446;SDS011;717;51.522;7.266;2022-08-02T14:44:04;1.55;;;1.40;;
1446;SDS011;717;51.522;7.266;2022-08-02T14:46:32;2.10;;;1.58;;
1446;SDS011;717;51.522;7.266;2022-08-02T14:49:00;1.65;;;1.55;;
1446;SDS011;717;51.522;7.266;2022-08-02T14:51:27;1.90;;;1.35;;
1446;SDS011;717;51.522;7.266;2022-08-02T14:53:55;2.40;;;1.30;;
1446;SDS011;717;51.522;7.266;2022-08-02T14:56:22;4.78;;;1.50;;
1446;SDS011;717;51.522;7.266;2022-08-02T14:58:50;1.40;;;1.30;;
1446;SDS011;717;51.522;7.266;2022-08-02T15:01:17;3.65;;;1.50;;
1446;SDS011;717;51.522;7.266;2022-08-02T15:03:44;1.45;;;1.35;;
1446;SDS011;717;51.522;7.266;2022-08-02T15:06:11;2.70;;;1.40;;
1446;SDS011;717;51.522;7.266;2022-08-02T15:08:37;1.90;;;1.50;;
1446;SDS011;717;51.522;7.266;2022-08-02T15:11:04;1.23;;;1.13;;
1446;SDS011;717;51.522;7.266;2022-08-02T15:13:31;2.33;;;1.40;;
1446;SDS011;717;51.522;7.266;2022-08-02T15:15:59;2.75;;;1.15;;
1446;SDS011;717;51.522;7.266;2022-08-02T15:18:26;3.15;;;1.48;;
1446;SDS011;717;51.522;7.266;2022-08-02T15:20:53;1.60;;;1.50;;
1446;SDS011;717;51.522;7.266;2022-08-02T15:23:20;1.40;;;1.27;;
1446;SDS011;717;51.522;7.266;2022-08-02T15:25:49;1.38;;;1.27;;
1446;SDS011;717;51.522;7.266;2022-08-02T15:28:16;1.98;;;1.15;;
1446;SDS011;717;51.522;7.266;2022-08-02T15:30:43;4.38;;;1.75;;
1446;SDS011;717;51.522;7.266;2022-08-02T15:33:11;1.48;;;1.38;;
1446;SDS011;717;51.522;7.266;2022-08-02T15:35:38;2.83;;;1.27;;
1446;SDS011;717;51.522;7.266;2022-08-02T15:38:04;3.17;;;1.40;;
1446;SDS011;717;51.522;7.266;2022-08-02T15:40:32;1.40;;;1.30;;
1446;SDS011;717;51.522;7.266;2022-08-02T15:42:59;1.58;;;1.33;;
1446;SDS011;717;51.522;7.266;2022-08-02T15:45:26;1.35;;;1.25;;
1446;SDS011;717;51.522;7.266;2022-08-02T15:47:52;1.05;;;1.00;;
1446;SDS011;717;51.522;7.266;2022-08-02T15:50:22;2.15;;;1.45;;
1446;SDS011;717;51.522;7.266;2022-08-02T15:52:48;2.13;;;1.30;;
1446;SDS011;717;51.522;7.266;2022-08-02T15:55:15;2.67;;;1.38;;